createdAt,value
2018-02-04T00:00:01.358Z,94031.27
2018-02-04T00:02:29.462Z,94040.14
2018-02-04T00:04:57.849Z,94043.63
2018-02-04T00:07:26.310Z,94048.48
2018-02-04T00:09:54.963Z,94051.08
2018-02-04T00:12:23.325Z,94070.29
2018-02-04T00:14:51.698Z,94070.44
2018-02-04T00:17:20.041Z,94075.83
2018-02-04T00:19:48.406Z,94070.89
2018-02-04T00:22:28.948Z,94071.99
2018-02-04T00:24:57.333Z,94072.84
2018-02-04T00:27:25.709Z,94076.49
2018-02-04T00:29:54.079Z,94078.33
2018-02-04T00:32:22.457Z,94082.22
2018-02-04T00:34:50.905Z,94078.23
2018-02-04T00:37:19.307Z,94089.52
2018-02-04T00:39:47.761Z,94096.20
2018-02-04T00:42:16.164Z,94100.55
2018-02-04T00:44:44.549Z,94104.98
2018-02-04T00:47:13.211Z,94113.01
2018-02-04T00:49:41.576Z,94114.94
2018-02-04T00:52:09.950Z,94114.05
2018-02-04T00:54:38.333Z,94123.17
2018-02-04T00:57:06.726Z,94127.41
2018-02-04T00:59:35.439Z,94124.80
2018-02-04T01:02:03.789Z,94120.80
2018-02-04T01:04:32.141Z,94124.74
2018-02-04T01:07:00.540Z,94128.55
2018-02-04T01:09:28.898Z,94127.28
2018-02-04T01:11:57.576Z,94129.91
2018-02-04T01:14:25.962Z,94130.86
2018-02-04T01:16:54.366Z,94129.04
2018-02-04T01:19:22.755Z,94130.11
2018-02-04T01:21:51.110Z,94139.48
2018-02-04T01:24:19.888Z,94147.59
2018-02-04T01:26:48.241Z,94148.72
2018-02-04T01:29:16.622Z,94149.89
2018-02-04T01:31:45.293Z,94161.42
2018-02-04T01:34:13.944Z,94160.69
2018-02-04T01:36:42.711Z,94163.86
2018-02-04T01:39:11.553Z,94161.25
2018-02-04T01:41:40.564Z,94166.00
2018-02-04T01:44:09.472Z,94174.25
2018-02-04T01:46:38.075Z,94174.45
2018-02-04T01:49:06.566Z,94179.84
2018-02-04T01:51:34.981Z,94179.73
2018-02-04T01:54:03.512Z,94179.17
2018-02-04T01:56:32.049Z,94182.12
2018-02-04T01:59:01.219Z,94175.91
2018-02-04T02:01:29.690Z,94177.50
2018-02-04T02:03:58.333Z,94181.73
2018-02-04T02:06:26.776Z,94179.45
2018-02-04T02:08:55.399Z,94183.52
2018-02-04T02:11:24.356Z,94179.33
2018-02-04T02:13:53.774Z,94183.88
2018-02-04T02:16:22.323Z,94188.58
2018-02-04T02:18:50.740Z,94186.19
2018-02-04T02:21:19.807Z,94190.50
2018-02-04T02:23:48.807Z,94197.77
2018-02-04T02:26:18.375Z,94205.76
2018-02-04T02:28:49.015Z,94209.47
2018-02-04T02:31:17.772Z,94212.81
2018-02-04T02:33:46.320Z,94220.43
2018-02-04T02:36:14.951Z,94216.91
2018-02-04T02:38:43.592Z,94215.07
2018-02-04T02:41:12.270Z,94216.31
2018-02-04T02:43:40.724Z,94221.42
2018-02-04T02:46:09.604Z,94222.20
2018-02-04T02:48:38.052Z,94217.78
2018-02-04T02:51:06.543Z,94207.90
2018-02-04T02:53:35.093Z,94217.13
2018-02-04T02:56:03.877Z,94214.92
2018-02-04T02:58:32.939Z,94233.06
2018-02-04T03:01:01.637Z,94233.44
2018-02-04T03:03:30.101Z,94237.97
2018-02-04T03:05:59.005Z,94240.83
2018-02-04T03:08:27.895Z,94246.34
2018-02-04T03:10:56.629Z,94250.72
2018-02-04T03:13:25.304Z,94249.17
2018-02-04T03:15:55.063Z,94254.59
2018-02-04T03:18:23.533Z,94258.84
2018-02-04T03:20:52.472Z,94259.34
2018-02-04T03:23:20.851Z,94257.70
2018-02-04T03:25:49.295Z,94251.71
2018-02-04T03:28:18.001Z,94255.17
2018-02-04T03:30:46.547Z,94263.27
2018-02-04T03:33:15.319Z,94262.91
2018-02-04T03:35:43.827Z,94263.75
2018-02-04T03:38:12.248Z,94268.44
2018-02-04T03:40:40.709Z,94268.75
2018-02-04T03:43:09.343Z,94274.02
2018-02-04T03:45:38.307Z,94279.60
2018-02-04T03:48:06.864Z,94289.12
2018-02-04T03:50:35.868Z,94293.81
2018-02-04T03:53:04.541Z,94294.88
2018-02-04T03:55:33.727Z,94296.50
2018-02-04T03:58:02.573Z,94300.51
2018-02-04T04:00:33.997Z,94304.71
2018-02-04T04:03:02.463Z,94310.86
2018-02-04T04:05:31.158Z,94310.44
2018-02-04T04:07:59.663Z,94308.91
2018-02-04T04:10:28.028Z,94308.45
2018-02-04T04:12:56.536Z,94306.83
2018-02-04T04:15:25.132Z,94315.78
2018-02-04T04:17:54.063Z,94308.14
2018-02-04T04:20:22.548Z,94317.08
2018-02-04T04:22:50.923Z,94319.27
2018-02-04T04:25:19.599Z,94322.27
2018-02-04T04:27:48.142Z,94328.84
2018-02-04T04:30:17.130Z,94336.63
2018-02-04T04:32:45.803Z,94342.59
2018-02-04T04:35:14.246Z,94337.41
2018-02-04T04:37:42.761Z,94345.33
2018-02-04T04:40:11.215Z,94355.31
2018-02-04T04:42:39.915Z,94352.28
2018-02-04T04:45:08.370Z,94352.92
2018-02-04T04:47:36.886Z,94352.61
2018-02-04T04:50:05.419Z,94357.12
2018-02-04T04:52:33.950Z,94360.28
2018-02-04T04:55:03.211Z,94359.73
2018-02-04T04:57:32.007Z,94367.07
2018-02-04T05:00:01.323Z,94369.84
2018-02-04T05:02:30.209Z,94367.75
2018-02-04T05:04:58.642Z,94369.92
2018-02-04T05:07:27.167Z,94367.72
2018-02-04T05:09:56.111Z,94372.62
2018-02-04T05:12:25.113Z,94376.13
2018-02-04T05:14:53.722Z,94384.44
2018-02-04T05:17:22.556Z,94390.32
2018-02-04T05:19:51.528Z,94388.41
2018-02-04T05:22:20.824Z,94394.68
2018-02-04T05:24:49.477Z,94397.25
2018-02-04T05:27:18.056Z,94403.52
2018-02-04T05:29:46.942Z,94403.67
2018-02-04T05:32:16.226Z,94411.05
2018-02-04T05:34:44.790Z,94417.16
2018-02-04T05:37:13.295Z,94417.73
2018-02-04T05:39:42.160Z,94425.25
2018-02-04T05:42:11.025Z,94429.73
2018-02-04T05:44:40.522Z,94437.14
2018-02-04T05:47:09.890Z,94439.89
2018-02-04T05:49:38.850Z,94442.11
2018-02-04T05:52:07.407Z,94457.67
2018-02-04T05:54:36.132Z,94459.54
2018-02-04T05:57:04.888Z,94469.66
2018-02-04T05:59:33.547Z,94472.25
2018-02-04T06:02:02.376Z,94470.90
2018-02-04T06:04:31.872Z,94471.97
2018-02-04T06:07:00.703Z,94476.60
2018-02-04T06:09:29.408Z,94487.27
2018-02-04T06:11:57.761Z,94487.52
2018-02-04T06:14:26.131Z,94495.94
2018-02-04T06:16:54.790Z,94500.71
2018-02-04T06:19:23.146Z,94499.72
2018-02-04T06:21:51.528Z,94507.56
2018-02-04T06:24:19.908Z,94507.81
2018-02-04T06:26:48.266Z,94505.81
2018-02-04T06:29:17.582Z,94513.27
2018-02-04T06:31:45.946Z,94521.27
2018-02-04T06:34:14.377Z,94523.30
2018-02-04T06:36:42.766Z,94523.92
2018-02-04T06:39:11.142Z,94527.71
2018-02-04T06:41:39.498Z,94539.80
2018-02-04T06:44:07.865Z,94537.58
2018-02-04T06:46:36.519Z,94537.88
2018-02-04T06:49:04.930Z,94541.37
2018-02-04T06:51:33.288Z,94545.67
2018-02-04T06:54:01.775Z,94538.64
2018-02-04T06:56:30.134Z,94549.84
2018-02-04T06:58:58.808Z,94558.24
2018-02-04T07:01:27.187Z,94557.85
2018-02-04T07:03:55.599Z,94565.02
2018-02-04T07:06:23.981Z,94564.79
2018-02-04T07:08:52.376Z,94569.89
2018-02-04T07:11:21.062Z,94580.88
2018-02-04T07:13:49.495Z,94579.32
2018-02-04T07:16:17.908Z,94581.66
2018-02-04T07:18:46.301Z,94592.61
2018-02-04T07:21:14.700Z,94599.39
2018-02-04T07:23:43.413Z,94598.59
2018-02-04T07:26:11.835Z,94603.38
2018-02-04T07:28:40.251Z,94611.22
2018-02-04T07:31:08.610Z,94611.87
2018-02-04T07:33:36.999Z,94617.38
2018-02-04T07:36:05.788Z,94619.87
2018-02-04T07:38:34.208Z,94622.88
2018-02-04T07:41:02.591Z,94624.34
2018-02-04T07:43:30.992Z,94631.67
2018-02-04T07:45:59.403Z,94633.34
2018-02-04T07:48:28.120Z,94636.88
2018-02-04T07:50:56.539Z,94645.28
2018-02-04T07:53:24.931Z,94638.16
2018-02-04T07:55:53.329Z,94644.81
2018-02-04T07:58:21.740Z,94652.46
2018-02-04T08:00:50.291Z,94657.47
2018-02-04T08:03:18.664Z,94660.70
2018-02-04T08:05:47.041Z,94661.28
2018-02-04T08:08:15.444Z,94661.98
2018-02-04T08:10:43.860Z,94670.30
2018-02-04T08:13:12.286Z,94663.82
2018-02-04T08:15:40.769Z,94667.41
2018-02-04T08:18:09.159Z,94678.44
2018-02-04T08:20:37.661Z,94682.05
2018-02-04T08:23:06.017Z,94685.65
2018-02-04T08:25:34.487Z,94683.89
2018-02-04T08:28:02.946Z,94689.37
2018-02-04T08:30:31.422Z,94691.99
2018-02-04T08:32:59.823Z,94698.84
2018-02-04T08:35:28.225Z,94700.48
2018-02-04T08:37:56.686Z,94711.89
2018-02-04T08:40:25.165Z,94709.77
2018-02-04T08:42:53.509Z,94722.72
2018-02-04T08:45:21.927Z,94729.14
2018-02-04T08:47:51.207Z,94733.80
2018-02-04T08:50:19.660Z,94728.43
2018-02-04T08:52:48.059Z,94733.44
2018-02-04T08:55:16.469Z,94731.53
2018-02-04T08:57:44.863Z,94736.42
2018-02-04T09:00:13.241Z,94732.70
2018-02-04T09:02:41.771Z,94738.81
2018-02-04T09:05:10.173Z,94741.23
2018-02-04T09:07:38.708Z,94750.76
2018-02-04T09:10:07.133Z,94754.63
2018-02-04T09:12:35.635Z,94757.87
2018-02-04T09:15:04.651Z,94761.17
2018-02-04T09:17:33.043Z,94764.41
2018-02-04T09:20:01.448Z,94759.72
2018-02-04T09:22:29.934Z,94760.20
2018-02-04T09:24:58.334Z,94761.70
2018-02-04T09:27:27.049Z,94768.28
2018-02-04T09:29:55.599Z,94771.00
2018-02-04T09:32:23.991Z,94777.48
2018-02-04T09:34:52.468Z,94782.89
2018-02-04T09:37:20.866Z,94785.16
2018-02-04T09:39:50.433Z,94787.92
2018-02-04T09:42:18.847Z,94788.22
2018-02-04T09:44:47.237Z,94795.82
2018-02-04T09:47:15.639Z,94802.76
2018-02-04T09:49:44.002Z,94801.58
2018-02-04T09:52:12.482Z,94807.25
2018-02-04T09:54:40.885Z,94803.14
2018-02-04T09:57:09.320Z,94804.03
2018-02-04T09:59:37.696Z,94816.18
2018-02-04T10:02:06.089Z,94815.00
2018-02-04T10:04:34.573Z,94821.38
2018-02-04T10:07:02.975Z,94829.19
2018-02-04T10:09:31.380Z,94835.41
2018-02-04T10:11:59.847Z,94835.19
2018-02-04T10:14:28.247Z,94834.32
2018-02-04T10:16:56.654Z,94843.33
2018-02-04T10:19:25.045Z,94840.94
2018-02-04T10:21:53.434Z,94852.03
2018-02-04T10:24:21.847Z,94850.47
2018-02-04T10:26:50.246Z,94855.50
2018-02-04T10:29:18.962Z,94857.73
2018-02-04T10:31:47.333Z,94850.99
2018-02-04T10:34:15.692Z,94857.50
2018-02-04T10:36:44.167Z,94864.39
2018-02-04T10:39:12.545Z,94866.09
2018-02-04T10:41:41.237Z,94867.78
2018-02-04T10:44:09.647Z,94869.28
2018-02-04T10:46:38.048Z,94869.11
2018-02-04T10:49:06.446Z,94870.67
2018-02-04T10:51:40.412Z,94879.83
2018-02-04T10:54:08.772Z,94876.81
2018-02-04T10:56:37.160Z,94880.83
2018-02-04T10:59:05.625Z,94886.36
2018-02-04T11:01:34.028Z,94882.93
2018-02-04T11:04:03.397Z,94887.01
2018-02-04T11:06:31.794Z,94891.02
2018-02-04T11:09:00.268Z,94887.08
2018-02-04T11:11:30.866Z,94887.14
2018-02-04T11:13:59.323Z,94894.17
2018-02-04T11:16:27.722Z,94897.94
2018-02-04T11:18:56.133Z,94895.75
2018-02-04T11:21:24.530Z,94899.63
2018-02-04T11:23:53.203Z,94896.97
2018-02-04T11:26:22.291Z,94906.64
2018-02-04T11:28:51.045Z,94909.52
2018-02-04T11:31:19.709Z,94909.15
2018-02-04T11:33:48.617Z,94910.64
2018-02-04T11:36:17.729Z,94912.58
2018-02-04T11:38:46.197Z,94912.95
2018-02-04T11:41:14.714Z,94923.73
2018-02-04T11:43:43.484Z,94919.22
2018-02-04T11:46:12.597Z,94931.87
2018-02-04T11:48:41.400Z,94925.97
2018-02-04T11:51:10.012Z,94931.73
2018-02-04T11:53:38.484Z,94932.55
2018-02-04T11:56:07.289Z,94934.38
2018-02-04T11:58:35.845Z,94939.16
2018-02-04T12:01:04.711Z,94939.84
2018-02-04T12:03:33.461Z,94946.02
2018-02-04T12:06:01.899Z,94946.04
2018-02-04T12:08:30.651Z,94955.64
2018-02-04T12:10:59.502Z,94956.08
2018-02-04T12:13:28.617Z,94956.86
2018-02-04T12:15:57.692Z,94962.28
2018-02-04T12:18:26.459Z,94963.53
2018-02-04T12:20:55.187Z,94969.00
2018-02-04T12:23:23.991Z,94965.67
2018-02-04T12:25:53.106Z,94966.27
2018-02-04T12:28:21.866Z,94972.41
2018-02-04T12:30:50.448Z,94968.78
2018-02-04T12:33:18.937Z,94969.03
2018-02-04T12:35:47.379Z,94970.30
2018-02-04T12:38:15.991Z,94966.83
2018-02-04T12:40:44.476Z,94975.30
2018-02-04T12:43:12.895Z,94972.00
2018-02-04T12:45:41.303Z,94974.83
2018-02-04T12:48:09.774Z,94974.66
2018-02-04T12:50:38.492Z,94976.80
2018-02-04T12:53:06.892Z,94980.88
2018-02-04T12:55:35.260Z,94981.41
2018-02-04T12:58:03.999Z,94991.36
2018-02-04T13:00:32.405Z,94995.78
2018-02-04T13:03:00.868Z,94995.33
2018-02-04T13:05:29.978Z,94999.50
2018-02-04T13:07:58.467Z,94999.95
2018-02-04T13:10:26.889Z,95001.34
2018-02-04T13:12:55.278Z,95007.67
2018-02-04T13:15:24.059Z,95010.38
2018-02-04T13:17:52.456Z,95017.30
2018-02-04T13:20:20.855Z,95014.76
2018-02-04T13:22:49.234Z,95019.77
2018-02-04T13:25:17.641Z,95018.41
2018-02-04T13:27:46.268Z,95023.13
2018-02-04T13:30:14.695Z,95029.63
2018-02-04T13:32:43.371Z,95041.52
2018-02-04T13:35:11.853Z,95038.06
2018-02-04T13:37:40.305Z,95044.88
2018-02-04T13:40:08.772Z,95047.16
2018-02-04T13:42:37.164Z,95048.14
2018-02-04T13:45:05.534Z,95046.16
2018-02-04T13:47:33.920Z,95054.80
2018-02-04T13:50:02.330Z,95050.28
2018-02-04T13:52:30.877Z,95058.56
2018-02-04T13:54:59.259Z,95061.05
2018-02-04T13:57:27.834Z,95055.75
2018-02-04T13:59:56.189Z,95063.17
2018-02-04T14:02:24.581Z,95063.86
2018-02-04T14:04:53.259Z,95065.88
2018-02-04T14:07:21.646Z,95071.42
2018-02-04T14:09:50.057Z,95067.27
2018-02-04T14:12:18.451Z,95068.77
2018-02-04T14:14:46.831Z,95066.70
2018-02-04T14:17:15.359Z,95074.38
2018-02-04T14:19:43.725Z,95076.42
2018-02-04T14:22:12.192Z,95081.00
2018-02-04T14:24:40.586Z,95088.99
2018-02-04T14:27:09.206Z,95087.80
2018-02-04T14:29:39.568Z,95092.65
2018-02-04T14:32:08.070Z,95099.17
2018-02-04T14:34:36.471Z,95085.78
2018-02-04T14:37:04.859Z,95092.41
2018-02-04T14:39:33.223Z,95108.16
2018-02-04T14:42:01.979Z,95108.41
2018-02-04T14:44:30.455Z,95111.51
2018-02-04T14:46:58.849Z,95114.40
2018-02-04T14:49:27.214Z,95118.27
2018-02-04T14:51:55.588Z,95112.20
2018-02-04T14:54:24.302Z,95116.03
2018-02-04T14:56:52.718Z,95113.64
2018-02-04T14:59:21.104Z,95119.37
2018-02-04T15:01:49.466Z,95126.05
2018-02-04T15:04:17.832Z,95126.17
2018-02-04T15:06:46.275Z,95127.97
2018-02-04T15:09:14.628Z,95126.18
2018-02-04T15:11:43.005Z,95125.62
2018-02-04T15:14:11.401Z,95129.55
2018-02-04T15:16:39.819Z,95124.98
2018-02-04T15:19:08.245Z,95129.62
2018-02-04T15:21:36.671Z,95136.31
2018-02-04T15:24:05.073Z,95132.58
2018-02-04T15:26:33.487Z,95143.17
2018-02-04T15:29:01.874Z,95143.39
2018-02-04T15:31:30.578Z,95145.25
2018-02-04T15:33:58.965Z,95147.71
2018-02-04T15:36:27.440Z,95149.11
2018-02-04T15:38:55.792Z,95154.63
2018-02-04T15:41:24.270Z,95155.16
2018-02-04T15:43:52.979Z,95158.14
2018-02-04T15:46:21.395Z,95152.95
2018-02-04T15:48:49.938Z,95156.69
2018-02-04T15:51:18.317Z,95150.40
2018-02-04T15:53:47.452Z,95156.51
2018-02-04T15:56:16.240Z,95158.46
2018-02-04T15:58:44.593Z,95153.36
2018-02-04T16:01:12.939Z,95163.98
2018-02-04T16:03:41.300Z,95166.92
2018-02-04T16:06:09.675Z,95169.09
2018-02-04T16:08:38.476Z,95179.33
2018-02-04T16:11:06.947Z,95179.33
2018-02-04T16:13:35.313Z,95185.92
2018-02-04T16:16:03.788Z,95183.06
2018-02-04T16:18:32.171Z,95188.44
2018-02-04T16:21:00.635Z,95201.95
2018-02-04T16:23:29.056Z,95196.84
2018-02-04T16:25:57.579Z,95200.66
2018-02-04T16:28:25.989Z,95200.95
2018-02-04T16:30:54.367Z,95203.87
2018-02-04T16:33:22.845Z,95201.09
2018-02-04T16:35:51.214Z,95203.19
2018-02-04T16:38:19.618Z,95215.14
2018-02-04T16:40:48.019Z,95208.09
2018-02-04T16:43:16.394Z,95214.79
2018-02-04T16:45:45.112Z,95218.18
2018-02-04T16:48:13.469Z,95223.78
2018-02-04T16:50:41.863Z,95225.38
2018-02-04T16:53:10.255Z,95227.12
2018-02-04T16:55:38.615Z,95232.28
2018-02-04T16:58:07.286Z,95232.13
2018-02-04T17:00:35.678Z,95232.31
2018-02-04T17:03:04.063Z,95241.20
2018-02-04T17:05:32.482Z,95244.60
2018-02-04T17:08:00.852Z,95242.25
2018-02-04T17:10:29.567Z,95254.58
2018-02-04T17:12:58.027Z,95248.05
2018-02-04T17:15:26.431Z,95243.00
2018-02-04T17:17:54.833Z,95247.13
2018-02-04T17:20:23.217Z,95247.86
2018-02-04T17:22:51.973Z,95252.65
2018-02-04T17:25:20.357Z,95259.91
2018-02-04T17:27:48.728Z,95265.60
2018-02-04T17:30:17.103Z,95262.17
2018-02-04T17:32:45.494Z,95267.59
2018-02-04T17:35:14.270Z,95268.20
2018-02-04T17:37:42.688Z,95271.83
2018-02-04T17:40:11.010Z,95274.66
2018-02-04T17:42:39.366Z,95276.22
2018-02-04T17:45:07.726Z,95272.83
2018-02-04T17:47:36.158Z,95270.48
2018-02-04T17:50:05.475Z,95279.43
2018-02-04T17:52:33.861Z,95279.52
2018-02-04T17:55:02.289Z,95281.70
2018-02-04T17:57:31.597Z,95282.77
2018-02-04T18:00:00.266Z,95287.97
2018-02-04T18:02:28.729Z,95291.17
2018-02-04T18:04:57.123Z,95289.08
2018-02-04T18:07:25.512Z,95287.84
2018-02-04T18:09:53.866Z,95296.52
2018-02-04T18:12:22.583Z,95300.81
2018-02-04T18:14:50.943Z,95299.69
2018-02-04T18:17:19.345Z,95302.58
2018-02-04T18:19:47.754Z,95309.16
2018-02-04T18:22:16.155Z,95309.88
2018-02-04T18:24:44.787Z,95301.70
2018-02-04T18:27:13.174Z,95309.38
2018-02-04T18:29:41.535Z,95314.64
2018-02-04T18:32:09.960Z,95312.31
2018-02-04T18:34:38.329Z,95319.56
2018-02-04T18:37:07.327Z,95320.55
2018-02-04T18:39:35.712Z,95323.45
2018-02-04T18:42:04.073Z,95328.36
2018-02-04T18:44:32.436Z,95322.91
2018-02-04T18:47:00.792Z,95332.44
2018-02-04T18:49:29.229Z,95339.64
2018-02-04T18:51:57.723Z,95335.05
2018-02-04T18:54:26.077Z,95340.14
2018-02-04T18:56:54.431Z,95346.39
2018-02-04T18:59:22.793Z,95344.08
2018-02-04T19:01:51.537Z,95340.97
2018-02-04T19:04:19.904Z,95348.13
2018-02-04T19:06:48.387Z,95351.79
2018-02-04T19:09:16.738Z,95354.12
2018-02-04T19:11:45.143Z,95356.83
2018-02-04T19:14:13.922Z,95360.48
2018-02-04T19:16:42.516Z,95366.67
2018-02-04T19:19:10.991Z,95363.30
2018-02-04T19:21:39.370Z,95358.00
2018-02-04T19:24:07.758Z,95375.20
2018-02-04T19:26:36.197Z,95386.58
2018-02-04T19:29:04.568Z,95382.27
2018-02-04T19:31:32.931Z,95380.45
2018-02-04T19:34:01.327Z,95386.85
2018-02-04T19:36:29.702Z,95399.44
2018-02-04T19:38:58.147Z,95396.84
2018-02-04T19:41:26.597Z,95409.98
2018-02-04T19:43:55.009Z,95401.34
2018-02-04T19:46:23.430Z,95408.23
2018-02-04T19:48:51.775Z,95407.58
2018-02-04T19:51:20.225Z,95408.83
2018-02-04T19:53:48.582Z,95411.16
2018-02-04T19:56:16.951Z,95408.77
2018-02-04T19:58:45.424Z,95410.64
2018-02-04T20:01:13.788Z,95422.34
2018-02-04T20:03:42.472Z,95430.19
2018-02-04T20:06:10.905Z,95421.28
2018-02-04T20:08:39.279Z,95423.98
2018-02-04T20:11:07.706Z,95424.70
2018-02-04T20:13:36.096Z,95420.20
2018-02-04T20:16:04.515Z,95421.50
2018-02-04T20:18:32.870Z,95423.94
2018-02-04T20:21:01.320Z,95424.57
2018-02-04T20:23:29.666Z,95423.94
2018-02-04T20:25:58.151Z,95423.94
2018-02-04T20:28:26.553Z,95430.59
2018-02-04T20:30:54.951Z,95432.75
2018-02-04T20:33:23.318Z,95426.66
2018-02-04T20:35:51.684Z,95432.80
2018-02-04T20:38:20.056Z,95431.28
2018-02-04T20:40:48.720Z,95433.10
2018-02-04T20:43:17.086Z,95442.39
2018-02-04T20:45:45.434Z,95449.17
2018-02-04T20:48:13.817Z,95450.05
2018-02-04T20:50:42.190Z,95458.23
2018-02-04T20:53:10.878Z,95460.20
2018-02-04T20:55:39.250Z,95471.02
2018-02-04T20:58:07.610Z,95460.61
2018-02-04T21:00:35.958Z,95466.16
2018-02-04T21:03:04.329Z,95472.53
2018-02-04T21:05:33.011Z,95471.11
2018-02-04T21:08:01.371Z,95474.55
2018-02-04T21:10:29.727Z,95479.84
2018-02-04T21:12:58.072Z,95473.48
2018-02-04T21:15:26.436Z,95484.45
2018-02-04T21:17:55.133Z,95474.83
2018-02-04T21:20:23.500Z,95484.39
2018-02-04T21:22:51.845Z,95486.68
2018-02-04T21:25:20.201Z,95482.44
2018-02-04T21:27:48.571Z,95485.53
2018-02-04T21:30:17.217Z,95487.91
2018-02-04T21:32:45.577Z,95489.02
2018-02-04T21:35:14.054Z,95487.13
2018-02-04T21:37:42.530Z,95483.11
2018-02-04T21:40:10.899Z,95486.78
2018-02-04T21:42:39.248Z,95487.83
2018-02-04T21:45:07.594Z,95488.02
2018-02-04T21:47:36.293Z,95492.77
2018-02-04T21:50:04.716Z,95490.72
2018-02-04T21:52:33.165Z,95484.34
2018-02-04T21:55:01.544Z,95493.61
2018-02-04T21:57:29.891Z,95494.11
2018-02-04T21:59:58.599Z,95485.28
2018-02-04T22:02:26.972Z,95496.76
2018-02-04T22:04:55.402Z,95503.39
2018-02-04T22:07:23.757Z,95504.23
2018-02-04T22:09:52.326Z,95510.56
2018-02-04T22:12:20.753Z,95506.44
2018-02-04T22:14:49.107Z,95512.86
2018-02-04T22:17:17.467Z,95509.04
2018-02-04T22:19:45.830Z,95507.73
2018-02-04T22:22:14.206Z,95508.31
2018-02-04T22:24:42.899Z,95506.64
2018-02-04T22:27:11.237Z,95505.65
2018-02-04T22:29:39.589Z,95514.66
2018-02-04T22:32:07.993Z,95518.53
2018-02-04T22:34:36.348Z,95518.20
2018-02-04T22:37:04.917Z,95529.47
2018-02-04T22:39:33.274Z,95530.04
2018-02-04T22:42:01.627Z,95528.99
2018-02-04T22:44:29.979Z,95529.80
2018-02-04T22:46:58.342Z,95535.95
2018-02-04T22:49:26.719Z,95537.13
2018-02-04T22:51:55.103Z,95528.22
2018-02-04T22:54:23.580Z,95527.73
2018-02-04T22:56:51.947Z,95533.41
2018-02-04T22:59:20.311Z,95539.92
2018-02-04T23:01:48.661Z,95534.53
2018-02-04T23:04:17.013Z,95539.94
2018-02-04T23:06:45.448Z,95542.67
2018-02-04T23:09:13.798Z,95555.23
2018-02-04T23:11:42.173Z,95548.69
2018-02-04T23:14:10.547Z,95546.50
2018-02-04T23:16:38.916Z,95544.00
2018-02-04T23:19:07.268Z,95550.48
2018-02-04T23:21:35.614Z,95550.39
2018-02-04T23:24:03.964Z,95551.89
2018-02-04T23:26:32.326Z,95552.74
2018-02-04T23:29:00.684Z,95551.53
2018-02-04T23:31:29.051Z,95543.50
2018-02-04T23:33:57.408Z,95543.83
2018-02-04T23:36:25.753Z,95558.91
2018-02-04T23:38:54.128Z,95550.21
2018-02-04T23:41:22.493Z,95554.88
2018-02-04T23:43:50.882Z,95551.30
2018-02-04T23:46:19.226Z,95546.44
2018-02-04T23:48:47.567Z,95552.92
2018-02-04T23:51:16.281Z,95562.13
2018-02-04T23:53:44.704Z,95558.69
2018-02-04T23:56:13.066Z,95555.59
2018-02-04T23:58:41.560Z,95559.70
